• Join FlightAware (Why Join?)
  • Login
  • US Flag 
12:02PM EDT


 

Airport Tracker/Info


-or-


 

Live Flight TrackerFlight Track Log ✈ UAL5915 ✈ 19-May-2013 ✈ KBUF - KIAD

Flight Track Log - Related Links

Times and Time Zones

All times are in EDT time to prevent confusion due to time zone crossing. See the UAL5915 flight status page for this flight to view local times or setup timezone preferences in your user account.

Time Position Orientation Groundspeed Altitude Reporting Facility
EDT Latitude Longitude Course Direction KTS MPH feet Rate Location/Type
06:13AM 42.9500 -78.7167 174° South 165 190 1,300  Level Buffalo TRACON
06:14AM 42.9833 -78.6667 48° Northeast 185 213 3,500 2,400 Climbing Buffalo TRACON
06:15AM 42.9667 -78.6000 109° East 225 259 5,900 2,100 Climbing Buffalo TRACON
06:15AM 42.9603 -78.6058 214° Southwest 232 267 6,300 1,860 Climbing Cleveland Center
06:16AM 42.5463 -78.5979 173° South  Level Estimated
06:16AM 42.8872 -78.6081 181° South 278 320 8,400  Level Cleveland Center
06:17AM 42.4477 -78.5649 180° South  Level Estimated
06:17AM 42.8081 -78.6050 178° South 272 313 10,500  Level Cleveland Center
06:18AM 42.3492 -78.5321 174° South  Level Estimated
06:18AM 42.7164 -78.6078 181° South 291 335 11,700  Level Cleveland Center
06:19AM 42.6164 -78.6139 183° South 331 381 13,800 1,860 Climbing Cleveland Center
06:20AM 42.5164 -78.6169 181° South 354 407 15,500 1,500 Climbing Cleveland Center
06:21AM 42.4144 -78.6200 181° South 365 420 16,900 1,200 Climbing Cleveland Center
06:22AM 42.3058 -78.6150 178° South 370 426 18,000 1,200 Climbing Cleveland Center
06:23AM 42.1989 -78.5681 162° South 382 440 19,400 1,200 Climbing Cleveland Center
06:24AM 42.0981 -78.5264 163° South 400 460 20,400 1,080 Climbing Cleveland Center
06:25AM 41.9886 -78.4739 160° South 417 480 21,600 1,320 Climbing Cleveland Center
06:26AM 41.8792 -78.4244 161° South 424 488 23,100 1,500 Climbing Cleveland Center
06:27AM 41.7658 -78.3756 162° South 424 488 24,600 900 Climbing Cleveland Center
06:28AM 41.6542 -78.3236 161° South 424 488 25,000 180 Climbing Cleveland Center
06:29AM 41.5344 -78.2697 161° South 435 501 25,000  Level Cleveland Center
06:30AM 41.4375 -78.2239 160° South 450 518 25,000  Level New York Center
06:31AM 41.3097 -78.1656 161° South 466 536 25,000  Level New York Center
06:32AM 41.1819 -78.1128 163° South 477 549 25,000  Level New York Center
06:33AM 41.0586 -78.0500 159° South 477 549 25,000  Level New York Center
06:34AM 40.9361 -77.9736 155° Southeast 482 555 25,000 -540 Level New York Center
06:35AM 40.8156 -77.9006 155° Southeast 482 555 24,000 -1,320 Descending New York Center
06:36AM 40.6986 -77.8308 156° South 482 555 22,400 -1,680 Descending New York Center
06:37AM 40.5842 -77.7592 155° Southeast 471 542 20,700 -1,800 Descending New York Center
06:38AM 40.4733 -77.6933 156° South 454 522 18,900 -1,260 Descending New York Center
06:39AM 40.2833 -77.5833 156° South 413 475 17,300 -1,140 Descending Potomac TRACON
06:40AM 40.1833 -77.5167 153° Southeast 408 470 15,900 -1,680 Descending Potomac TRACON
06:41AM 40.0833 -77.4667 159° South 399 459 14,000 -1,500 Descending Potomac TRACON
06:42AM 39.9833 -77.4000 153° Southeast 355 409 13,000 -540 Descending Potomac TRACON
06:43AM 39.9167 -77.3667 159° South 291 335 13,000 -720 Level Potomac TRACON
06:44AM 39.8500 -77.3500 169° South 298 343 11,800 -1,320 Descending Potomac TRACON
06:45AM 39.7667 -77.3500 180° South 286 329 10,500 -960 Descending Potomac TRACON
06:46AM 39.7000 -77.3500 180° South 276 318 10,000 -660 Descending Potomac TRACON
06:47AM 39.6333 -77.3833 201° Southwest 278 320 9,300 -1,080 Descending Potomac TRACON
06:48AM 39.5667 -77.4167 201° Southwest 266 306 8,000 -1,380 Descending Potomac TRACON
06:49AM 39.5000 -77.4333 191° South 259 298 6,900 -1,320 Descending Potomac TRACON
06:50AM 39.4333 -77.4500 191° South 254 292 5,600 -960 Descending Potomac TRACON
06:51AM 39.3667 -77.4500 180° South 225 259 5,000 -300 Descending Potomac TRACON
06:52AM 39.3167 -77.4500 180° South 201 231 5,000  Level Potomac TRACON
06:53AM 39.2500 -77.4500 180° South 201 231 5,000 -180 Level Potomac TRACON
06:54AM 39.2000 -77.4500 180° South 198 228 4,700 -720 Descending Potomac TRACON
06:55AM 39.1500 -77.4500 180° South 196 226 3,600 -1,140 Descending Potomac TRACON